sensor_id;sensor_type;location;lat;lon;timestamp;temperature;humidity
65989;HTU21D;53592;51.402;6.054;2022-12-29T00:01:40;11.74;86.48
65989;HTU21D;53592;51.402;6.054;2022-12-29T00:04:06;11.72;87.09
65989;HTU21D;53592;51.402;6.054;2022-12-29T00:06:32;11.75;87.16
65989;HTU21D;53592;51.402;6.054;2022-12-29T00:08:58;11.67;87.41
65989;HTU21D;53592;51.402;6.054;2022-12-29T00:11:26;11.61;87.78
65989;HTU21D;53592;51.402;6.054;2022-12-29T00:13:52;11.64;87.61
65989;HTU21D;53592;51.402;6.054;2022-12-29T00:16:37;11.68;87.80
65989;HTU21D;53592;51.402;6.054;2022-12-29T00:19:04;11.67;87.68
65989;HTU21D;53592;51.402;6.054;2022-12-29T00:21:30;11.64;87.89
65989;HTU21D;53592;51.402;6.054;2022-12-29T00:24:18;11.66;87.57
65989;HTU21D;53592;51.402;6.054;2022-12-29T00:29:50;11.72;87.67
65989;HTU21D;53592;51.402;6.054;2022-12-29T00:32:34;11.73;87.40
65989;HTU21D;53592;51.402;6.054;2022-12-29T00:35:39;11.71;87.54
65989;HTU21D;53592;51.402;6.054;2022-12-29T00:38:10;11.75;87.19
65989;HTU21D;53592;51.402;6.054;2022-12-29T00:40:55;11.73;87.42
65989;HTU21D;53592;51.402;6.054;2022-12-29T00:43:38;11.77;87.08
65989;HTU21D;53592;51.402;6.054;2022-12-29T00:46:22;11.78;87.41
65989;HTU21D;53592;51.402;6.054;2022-12-29T00:48:48;11.79;87.12
65989;HTU21D;53592;51.402;6.054;2022-12-29T00:51:32;11.78;87.08
65989;HTU21D;53592;51.402;6.054;2022-12-29T00:53:57;11.74;87.27
65989;HTU21D;53592;51.402;6.054;2022-12-29T00:56:23;11.71;87.64
65989;HTU21D;53592;51.402;6.054;2022-12-29T00:58:48;11.76;87.29
65989;HTU21D;53592;51.402;6.054;2022-12-29T01:01:14;11.71;87.73
65989;HTU21D;53592;51.402;6.054;2022-12-29T01:03:39;11.68;87.65
65989;HTU21D;53592;51.402;6.054;2022-12-29T01:06:09;11.69;87.51
65989;HTU21D;53592;51.402;6.054;2022-12-29T01:08:35;11.73;87.26
65989;HTU21D;53592;51.402;6.054;2022-12-29T01:11:04;11.81;86.68
65989;HTU21D;53592;51.402;6.054;2022-12-29T01:13:31;11.75;86.60
65989;HTU21D;53592;51.402;6.054;2022-12-29T01:15:57;11.82;86.43
65989;HTU21D;53592;51.402;6.054;2022-12-29T01:18:24;11.84;86.09
65989;HTU21D;53592;51.402;6.054;2022-12-29T01:20:50;11.90;85.78
65989;HTU21D;53592;51.402;6.054;2022-12-29T01:23:16;11.86;85.81
65989;HTU21D;53592;51.402;6.054;2022-12-29T01:25:41;11.84;85.71
65989;HTU21D;53592;51.402;6.054;2022-12-29T01:28:07;11.96;84.93
65989;HTU21D;53592;51.402;6.054;2022-12-29T01:30:36;11.91;84.64
65989;HTU21D;53592;51.402;6.054;2022-12-29T01:33:02;11.92;84.63
65989;HTU21D;53592;51.402;6.054;2022-12-29T01:35:28;12.00;84.39
65989;HTU21D;53592;51.402;6.054;2022-12-29T01:37:54;11.93;84.21
65989;HTU21D;53592;51.402;6.054;2022-12-29T01:40:19;12.04;84.08
65989;HTU21D;53592;51.402;6.054;2022-12-29T01:42:45;12.05;83.39
65989;HTU21D;53592;51.402;6.054;2022-12-29T01:45:11;12.04;83.16
65989;HTU21D;53592;51.402;6.054;2022-12-29T01:47:47;12.03;82.90
65989;HTU21D;53592;51.402;6.054;2022-12-29T01:50:16;12.15;82.29
65989;HTU21D;53592;51.402;6.054;2022-12-29T01:52:53;12.08;82.58
65989;HTU21D;53592;51.402;6.054;2022-12-29T01:55:22;12.10;82.41
65989;HTU21D;53592;51.402;6.054;2022-12-29T01:57:51;12.11;82.17
65989;HTU21D;53592;51.402;6.054;2022-12-29T02:00:18;12.17;81.58
65989;HTU21D;53592;51.402;6.054;2022-12-29T02:02:51;12.14;81.53
65989;HTU21D;53592;51.402;6.054;2022-12-29T02:05:38;12.18;80.68
65989;HTU21D;53592;51.402;6.054;2022-12-29T02:08:05;12.13;81.06
65989;HTU21D;53592;51.402;6.054;2022-12-29T02:10:33;12.16;80.67
65989;HTU21D;53592;51.402;6.054;2022-12-29T02:12:59;12.20;80.20
65989;HTU21D;53592;51.402;6.054;2022-12-29T02:15:48;12.18;80.43
65989;HTU21D;53592;51.402;6.054;2022-12-29T02:24:04;12.18;79.60
65989;HTU21D;53592;51.402;6.054;2022-12-29T02:32:08;12.19;80.24
65989;HTU21D;53592;51.402;6.054;2022-12-29T02:34:50;12.18;80.13
65989;HTU21D;53592;51.402;6.054;2022-12-29T02:42:52;12.16;80.36
65989;HTU21D;53592;51.402;6.054;2022-12-29T02:48:10;12.08;80.89
65989;HTU21D;53592;51.402;6.054;2022-12-29T02:50:48;12.05;81.07
65989;HTU21D;53592;51.402;6.054;2022-12-29T02:53:18;12.02;81.53
65989;HTU21D;53592;51.402;6.054;2022-12-29T02:56:04;11.99;82.04
65989;HTU21D;53592;51.402;6.054;2022-12-29T02:58:30;11.99;82.02
65989;HTU21D;53592;51.402;6.054;2022-12-29T03:18:37;11.68;85.68
65989;HTU21D;53592;51.402;6.054;2022-12-29T03:21:30;11.55;86.07
65989;HTU21D;53592;51.402;6.054;2022-12-29T03:24:19;11.46;85.55
65989;HTU21D;53592;51.402;6.054;2022-12-29T03:26:47;11.33;85.90
65989;HTU21D;53592;51.402;6.054;2022-12-29T03:29:17;11.20;86.37
65989;HTU21D;53592;51.402;6.054;2022-12-29T03:31:48;11.13;86.71
65989;HTU21D;53592;51.402;6.054;2022-12-29T03:34:18;11.07;86.95
65989;HTU21D;53592;51.402;6.054;2022-12-29T03:36:55;11.04;86.77
65989;HTU21D;53592;51.402;6.054;2022-12-29T03:39:23;11.03;86.96
65989;HTU21D;53592;51.402;6.054;2022-12-29T03:41:56;10.92;87.54
65989;HTU21D;53592;51.402;6.054;2022-12-29T03:44:35;10.94;88.18
65989;HTU21D;53592;51.402;6.054;2022-12-29T03:47:02;10.87;88.47
65989;HTU21D;53592;51.402;6.054;2022-12-29T03:49:27;10.85;88.64
65989;HTU21D;53592;51.402;6.054;2022-12-29T03:51:53;10.83;88.95
65989;HTU21D;53592;51.402;6.054;2022-12-29T03:54:19;10.78;89.26
65989;HTU21D;53592;51.402;6.054;2022-12-29T03:56:44;10.77;89.12
65989;HTU21D;53592;51.402;6.054;2022-12-29T03:59:09;10.74;88.97
65989;HTU21D;53592;51.402;6.054;2022-12-29T04:01:35;10.74;88.99
65989;HTU21D;53592;51.402;6.054;2022-12-29T04:04:00;10.73;88.83
65989;HTU21D;53592;51.402;6.054;2022-12-29T04:06:26;10.79;88.35
65989;HTU21D;53592;51.402;6.054;2022-12-29T04:08:51;10.74;88.06
65989;HTU21D;53592;51.402;6.054;2022-12-29T04:11:17;10.69;88.37
65989;HTU21D;53592;51.402;6.054;2022-12-29T04:13:42;10.69;88.31
65989;HTU21D;53592;51.402;6.054;2022-12-29T04:16:08;10.69;88.29
65989;HTU21D;53592;51.402;6.054;2022-12-29T04:18:33;10.70;87.96
65989;HTU21D;53592;51.402;6.054;2022-12-29T04:20:59;10.64;88.02
65989;HTU21D;53592;51.402;6.054;2022-12-29T04:23:25;10.66;87.61
65989;HTU21D;53592;51.402;6.054;2022-12-29T04:25:50;10.60;87.93
65989;HTU21D;53592;51.402;6.054;2022-12-29T04:28:16;10.59;87.96
65989;HTU21D;53592;51.402;6.054;2022-12-29T04:30:43;10.58;88.02
65989;HTU21D;53592;51.402;6.054;2022-12-29T04:33:09;10.57;88.31
65989;HTU21D;53592;51.402;6.054;2022-12-29T04:35:35;10.55;88.44
65989;HTU21D;53592;51.402;6.054;2022-12-29T04:38:01;10.52;88.70
65989;HTU21D;53592;51.402;6.054;2022-12-29T04:40:27;10.52;88.70
65989;HTU21D;53592;51.402;6.054;2022-12-29T04:42:52;10.51;88.68
65989;HTU21D;53592;51.402;6.054;2022-12-29T04:45:18;10.49;88.71
65989;HTU21D;53592;51.402;6.054;2022-12-29T04:47:43;10.49;88.63
65989;HTU21D;53592;51.402;6.054;2022-12-29T04:50:09;10.49;88.57
65989;HTU21D;53592;51.402;6.054;2022-12-29T04:52:35;10.43;88.82
65989;HTU21D;53592;51.402;6.054;2022-12-29T04:55:01;10.42;88.64
65989;HTU21D;53592;51.402;6.054;2022-12-29T04:57:27;10.44;88.74
65989;HTU21D;53592;51.402;6.054;2022-12-29T04:59:53;10.42;88.70
65989;HTU21D;53592;51.402;6.054;2022-12-29T05:02:18;10.40;88.73
65989;HTU21D;53592;51.402;6.054;2022-12-29T05:04:44;10.43;88.61
65989;HTU21D;53592;51.402;6.054;2022-12-29T05:07:09;10.42;88.64
65989;HTU21D;53592;51.402;6.054;2022-12-29T05:09:35;10.42;88.64
65989;HTU21D;53592;51.402;6.054;2022-12-29T05:12:00;10.39;88.65
65989;HTU21D;53592;51.402;6.054;2022-12-29T05:14:26;10.35;88.80
65989;HTU21D;53592;51.402;6.054;2022-12-29T05:16:51;10.39;88.51
65989;HTU21D;53592;51.402;6.054;2022-12-29T05:19:17;10.41;88.57
65989;HTU21D;53592;51.402;6.054;2022-12-29T05:21:43;10.35;88.68
65989;HTU21D;53592;51.402;6.054;2022-12-29T05:24:09;10.35;88.54
65989;HTU21D;53592;51.402;6.054;2022-12-29T05:26:34;10.36;88.47
65989;HTU21D;53592;51.402;6.054;2022-12-29T05:29:00;10.29;88.51
65989;HTU21D;53592;51.402;6.054;2022-12-29T05:31:26;10.33;88.32
65989;HTU21D;53592;51.402;6.054;2022-12-29T05:33:52;10.28;88.09
65989;HTU21D;53592;51.402;6.054;2022-12-29T05:36:18;10.31;87.69
65989;HTU21D;53592;51.402;6.054;2022-12-29T05:38:43;10.33;87.54
65989;HTU21D;53592;51.402;6.054;2022-12-29T05:41:09;10.31;87.31
65989;HTU21D;53592;51.402;6.054;2022-12-29T05:43:35;10.31;86.78
65989;HTU21D;53592;51.402;6.054;2022-12-29T05:46:01;10.27;86.61
65989;HTU21D;53592;51.402;6.054;2022-12-29T05:48:27;10.28;86.74
65989;HTU21D;53592;51.402;6.054;2022-12-29T05:50:53;10.27;86.70
65989;HTU21D;53592;51.402;6.054;2022-12-29T05:53:19;10.29;86.96
65989;HTU21D;53592;51.402;6.054;2022-12-29T05:55:47;10.33;86.86
65989;HTU21D;53592;51.402;6.054;2022-12-29T05:58:16;10.33;86.61
65989;HTU21D;53592;51.402;6.054;2022-12-29T06:00:41;10.34;86.74
65989;HTU21D;53592;51.402;6.054;2022-12-29T06:03:07;10.37;86.64
65989;HTU21D;53592;51.402;6.054;2022-12-29T06:05:33;10.38;86.64
65989;HTU21D;53592;51.402;6.054;2022-12-29T06:07:58;10.40;86.36
65989;HTU21D;53592;51.402;6.054;2022-12-29T06:10:24;10.39;86.40
65989;HTU21D;53592;51.402;6.054;2022-12-29T06:12:49;10.42;86.18
65989;HTU21D;53592;51.402;6.054;2022-12-29T06:15:15;10.42;86.16
65989;HTU21D;53592;51.402;6.054;2022-12-29T06:17:40;10.41;86.10
65989;HTU21D;53592;51.402;6.054;2022-12-29T06:20:07;10.42;85.86
65989;HTU21D;53592;51.402;6.054;2022-12-29T06:22:32;10.44;86.12
65989;HTU21D;53592;51.402;6.054;2022-12-29T06:24:58;10.48;85.93
65989;HTU21D;53592;51.402;6.054;2022-12-29T06:27:24;10.46;85.77
65989;HTU21D;53592;51.402;6.054;2022-12-29T06:29:49;10.45;85.64
65989;HTU21D;53592;51.402;6.054;2022-12-29T06:32:15;10.41;85.51
65989;HTU21D;53592;51.402;6.054;2022-12-29T06:34:40;10.39;85.63
65989;HTU21D;53592;51.402;6.054;2022-12-29T06:37:07;10.38;85.55
65989;HTU21D;53592;51.402;6.054;2022-12-29T06:39:33;10.39;85.38
65989;HTU21D;53592;51.402;6.054;2022-12-29T06:41:58;10.41;85.35
65989;HTU21D;53592;51.402;6.054;2022-12-29T06:44:24;10.43;85.26
65989;HTU21D;53592;51.402;6.054;2022-12-29T06:46:50;10.49;85.03
65989;HTU21D;53592;51.402;6.054;2022-12-29T06:49:16;10.51;85.02
65989;HTU21D;53592;51.402;6.054;2022-12-29T06:51:41;10.51;84.87
65989;HTU21D;53592;51.402;6.054;2022-12-29T06:54:07;10.55;84.63
65989;HTU21D;53592;51.402;6.054;2022-12-29T06:56:32;10.57;84.28
65989;HTU21D;53592;51.402;6.054;2022-12-29T06:58:58;10.69;83.81
65989;HTU21D;53592;51.402;6.054;2022-12-29T07:01:26;10.66;83.72
65989;HTU21D;53592;51.402;6.054;2022-12-29T07:03:52;10.69;83.90
65989;HTU21D;53592;51.402;6.054;2022-12-29T07:06:17;10.67;83.45
65989;HTU21D;53592;51.402;6.054;2022-12-29T07:08:43;10.70;82.94
65989;HTU21D;53592;51.402;6.054;2022-12-29T07:11:09;10.70;82.42
65989;HTU21D;53592;51.402;6.054;2022-12-29T07:13:34;10.72;82.50
65989;HTU21D;53592;51.402;6.054;2022-12-29T07:16:08;10.75;82.43
65989;HTU21D;53592;51.402;6.054;2022-12-29T07:18:34;10.73;82.39
65989;HTU21D;53592;51.402;6.054;2022-12-29T07:21:00;10.78;82.20
65989;HTU21D;53592;51.402;6.054;2022-12-29T07:23:26;10.81;81.87
65989;HTU21D;53592;51.402;6.054;2022-12-29T07:26:04;10.73;80.67
65989;HTU21D;53592;51.402;6.054;2022-12-29T07:28:30;10.84;79.88
65989;HTU21D;53592;51.402;6.054;2022-12-29T07:30:57;10.86;77.62
65989;HTU21D;53592;51.402;6.054;2022-12-29T07:33:23;10.85;79.27
65989;HTU21D;53592;51.402;6.054;2022-12-29T07:35:49;10.78;79.35
65989;HTU21D;53592;51.402;6.054;2022-12-29T07:38:14;10.72;78.80
65989;HTU21D;53592;51.402;6.054;2022-12-29T07:40:40;10.72;78.83
65989;HTU21D;53592;51.402;6.054;2022-12-29T07:43:05;10.71;78.45
65989;HTU21D;53592;51.402;6.054;2022-12-29T07:45:31;10.71;78.43
65989;HTU21D;53592;51.402;6.054;2022-12-29T07:47:57;10.79;77.53
65989;HTU21D;53592;51.402;6.054;2022-12-29T07:50:22;10.77;77.76
65989;HTU21D;53592;51.402;6.054;2022-12-29T07:52:48;10.81;76.79
65989;HTU21D;53592;51.402;6.054;2022-12-29T07:55:16;10.81;77.40
65989;HTU21D;53592;51.402;6.054;2022-12-29T07:57:42;10.81;75.86
65989;HTU21D;53592;51.402;6.054;2022-12-29T08:00:09;10.81;76.61
65989;HTU21D;53592;51.402;6.054;2022-12-29T08:02:35;10.81;76.57
65989;HTU21D;53592;51.402;6.054;2022-12-29T08:05:01;10.82;76.77
65989;HTU21D;53592;51.402;6.054;2022-12-29T08:07:26;10.82;76.67
65989;HTU21D;53592;51.402;6.054;2022-12-29T08:09:52;10.85;76.16
65989;HTU21D;53592;51.402;6.054;2022-12-29T08:12:18;10.87;76.46
65989;HTU21D;53592;51.402;6.054;2022-12-29T08:14:44;10.94;76.18
65989;HTU21D;53592;51.402;6.054;2022-12-29T08:17:09;10.94;75.99
65989;HTU21D;53592;51.402;6.054;2022-12-29T08:19:36;10.90;76.57
65989;HTU21D;53592;51.402;6.054;2022-12-29T08:22:01;10.84;75.99
65989;HTU21D;53592;51.402;6.054;2022-12-29T08:24:27;10.97;75.81
65989;HTU21D;53592;51.402;6.054;2022-12-29T08:26:52;10.93;75.74
65989;HTU21D;53592;51.402;6.054;2022-12-29T08:29:18;10.94;75.73
65989;HTU21D;53592;51.402;6.054;2022-12-29T08:31:44;10.85;77.05
65989;HTU21D;53592;51.402;6.054;2022-12-29T08:34:10;10.88;76.92
65989;HTU21D;53592;51.402;6.054;2022-12-29T08:36:36;10.82;77.41
65989;HTU21D;53592;51.402;6.054;2022-12-29T08:39:02;10.88;77.48
65989;HTU21D;53592;51.402;6.054;2022-12-29T08:41:28;10.98;77.45
65989;HTU21D;53592;51.402;6.054;2022-12-29T08:43:53;10.99;77.95
65989;HTU21D;53592;51.402;6.054;2022-12-29T08:46:19;11.04;77.89
65989;HTU21D;53592;51.402;6.054;2022-12-29T08:48:45;11.08;77.73
65989;HTU21D;53592;51.402;6.054;2022-12-29T08:51:10;11.11;76.60
65989;HTU21D;53592;51.402;6.054;2022-12-29T08:53:36;11.20;76.15
65989;HTU21D;53592;51.402;6.054;2022-12-29T08:56:02;11.23;75.67
65989;HTU21D;53592;51.402;6.054;2022-12-29T08:58:28;11.26;75.06
65989;HTU21D;53592;51.402;6.054;2022-12-29T09:00:54;11.23;75.85
65989;HTU21D;53592;51.402;6.054;2022-12-29T09:03:22;11.18;76.18
65989;HTU21D;53592;51.402;6.054;2022-12-29T09:05:49;11.25;75.87
65989;HTU21D;53592;51.402;6.054;2022-12-29T09:08:16;11.13;76.27
65989;HTU21D;53592;51.402;6.054;2022-12-29T09:10:42;11.12;76.14
65989;HTU21D;53592;51.402;6.054;2022-12-29T09:13:08;11.12;75.27
65989;HTU21D;53592;51.402;6.054;2022-12-29T09:15:33;11.19;74.75
65989;HTU21D;53592;51.402;6.054;2022-12-29T09:17:59;11.20;75.49
65989;HTU21D;53592;51.402;6.054;2022-12-29T09:20:24;11.31;74.70
65989;HTU21D;53592;51.402;6.054;2022-12-29T09:22:50;11.40;75.10
65989;HTU21D;53592;51.402;6.054;2022-12-29T09:25:16;11.42;74.44
65989;HTU21D;53592;51.402;6.054;2022-12-29T09:27:41;11.40;75.23
65989;HTU21D;53592;51.402;6.054;2022-12-29T09:30:10;11.41;75.28
65989;HTU21D;53592;51.402;6.054;2022-12-29T09:32:36;11.53;73.65
65989;HTU21D;53592;51.402;6.054;2022-12-29T09:35:04;11.42;74.57
65989;HTU21D;53592;51.402;6.054;2022-12-29T09:37:30;11.45;73.07
65989;HTU21D;53592;51.402;6.054;2022-12-29T09:39:55;11.45;73.98
65989;HTU21D;53592;51.402;6.054;2022-12-29T09:45:15;11.53;73.65
65989;HTU21D;53592;51.402;6.054;2022-12-29T09:47:46;11.56;72.62
65989;HTU21D;53592;51.402;6.054;2022-12-29T09:50:30;11.58;72.62
65989;HTU21D;53592;51.402;6.054;2022-12-29T09:55:39;11.56;72.77
65989;HTU21D;53592;51.402;6.054;2022-12-29T10:01:04;11.53;72.09
65989;HTU21D;53592;51.402;6.054;2022-12-29T10:09:14;11.61;71.63
65989;HTU21D;53592;51.402;6.054;2022-12-29T10:20:54;11.67;72.66
65989;HTU21D;53592;51.402;6.054;2022-12-29T10:23:38;11.68;72.42
65989;HTU21D;53592;51.402;6.054;2022-12-29T10:26:17;11.66;72.31
65989;HTU21D;53592;51.402;6.054;2022-12-29T10:31:39;11.63;72.41
65989;HTU21D;53592;51.402;6.054;2022-12-29T10:36:58;11.71;72.32
65989;HTU21D;53592;51.402;6.054;2022-12-29T10:39:39;11.69;72.99
65989;HTU21D;53592;51.402;6.054;2022-12-29T10:42:29;11.76;73.89
65989;HTU21D;53592;51.402;6.054;2022-12-29T10:44:59;11.81;73.76
65989;HTU21D;53592;51.402;6.054;2022-12-29T10:47:30;11.76;73.72
65989;HTU21D;53592;51.402;6.054;2022-12-29T10:49:57;11.69;73.58
65989;HTU21D;53592;51.402;6.054;2022-12-29T10:52:28;11.67;73.49
65989;HTU21D;53592;51.402;6.054;2022-12-29T10:55:00;11.59;72.55
65989;HTU21D;53592;51.402;6.054;2022-12-29T11:00:00;11.64;73.06
65989;HTU21D;53592;51.402;6.054;2022-12-29T11:08:25;11.81;72.96
65989;HTU21D;53592;51.402;6.054;2022-12-29T11:11:07;11.76;73.24
65989;HTU21D;53592;51.402;6.054;2022-12-29T11:13:46;11.75;73.35
65989;HTU21D;53592;51.402;6.054;2022-12-29T11:16:12;11.77;73.93
65989;HTU21D;53592;51.402;6.054;2022-12-29T11:18:39;11.83;73.80
65989;HTU21D;53592;51.402;6.054;2022-12-29T11:26:25;12.05;72.77
65989;HTU21D;53592;51.402;6.054;2022-12-29T11:29:04;12.01;72.22
65989;HTU21D;53592;51.402;6.054;2022-12-29T11:31:30;12.01;72.72
65989;HTU21D;53592;51.402;6.054;2022-12-29T11:33:56;11.93;72.29
65989;HTU21D;53592;51.402;6.054;2022-12-29T11:36:24;11.98;72.62
65989;HTU21D;53592;51.402;6.054;2022-12-29T11:38:53;11.98;72.58
65989;HTU21D;53592;51.402;6.054;2022-12-29T11:41:26;11.89;72.05
65989;HTU21D;53592;51.402;6.054;2022-12-29T11:43:59;11.91;72.34
65989;HTU21D;53592;51.402;6.054;2022-12-29T11:46:33;11.84;72.85
65989;HTU21D;53592;51.402;6.054;2022-12-29T11:49:00;11.81;72.70
65989;HTU21D;53592;51.402;6.054;2022-12-29T11:51:47;11.78;72.99
65989;HTU21D;53592;51.402;6.054;2022-12-29T11:56:48;11.69;73.53
65989;HTU21D;53592;51.402;6.054;2022-12-29T12:04:44;11.64;74.25
65989;HTU21D;53592;51.402;6.054;2022-12-29T12:07:30;11.63;74.53
65989;HTU21D;53592;51.402;6.054;2022-12-29T12:10:04;11.61;73.90
65989;HTU21D;53592;51.402;6.054;2022-12-29T12:13:05;11.58;73.54
65989;HTU21D;53592;51.402;6.054;2022-12-29T12:15:45;11.57;73.73
65989;HTU21D;53592;51.402;6.054;2022-12-29T12:26:59;11.59;73.35
65989;HTU21D;53592;51.402;6.054;2022-12-29T12:34:57;11.62;72.99
65989;HTU21D;53592;51.402;6.054;2022-12-29T12:37:29;11.73;72.61
65989;HTU21D;53592;51.402;6.054;2022-12-29T12:48:41;11.64;73.69
65989;HTU21D;53592;51.402;6.054;2022-12-29T12:54:30;11.69;74.03
65989;HTU21D;53592;51.402;6.054;2022-12-29T13:00:00;11.62;73.12
65989;HTU21D;53592;51.402;6.054;2022-12-29T13:02:43;11.60;73.95
65989;HTU21D;53592;51.402;6.054;2022-12-29T13:05:29;11.60;73.77
65989;HTU21D;53592;51.402;6.054;2022-12-29T13:08:17;11.63;74.22
65989;HTU21D;53592;51.402;6.054;2022-12-29T13:16:26;11.70;73.91
65989;HTU21D;53592;51.402;6.054;2022-12-29T13:19:05;11.66;74.44
65989;HTU21D;53592;51.402;6.054;2022-12-29T13:30:04;11.52;74.87
65989;HTU21D;53592;51.402;6.054;2022-12-29T13:35:26;11.37;76.08
65989;HTU21D;53592;51.402;6.054;2022-12-29T13:38:45;11.30;76.40
65989;HTU21D;53592;51.402;6.054;2022-12-29T13:40:56;11.26;76.73
65989;HTU21D;53592;51.402;6.054;2022-12-29T13:43:27;11.33;76.24
65989;HTU21D;53592;51.402;6.054;2022-12-29T13:46:01;11.30;76.76
65989;HTU21D;53592;51.402;6.054;2022-12-29T13:48:39;11.32;76.54
65989;HTU21D;53592;51.402;6.054;2022-12-29T13:51:08;11.29;76.63
65989;HTU21D;53592;51.402;6.054;2022-12-29T13:56:16;11.33;76.31
65989;HTU21D;53592;51.402;6.054;2022-12-29T13:59:37;11.32;76.02
65989;HTU21D;53592;51.402;6.054;2022-12-29T14:02:42;11.31;76.10
65989;HTU21D;53592;51.402;6.054;2022-12-29T14:05:31;11.30;76.05
65989;HTU21D;53592;51.402;6.054;2022-12-29T14:08:06;11.27;75.65
65989;HTU21D;53592;51.402;6.054;2022-12-29T14:10:48;11.24;75.25
65989;HTU21D;53592;51.402;6.054;2022-12-29T14:13:18;11.25;74.64
65989;HTU21D;53592;51.402;6.054;2022-12-29T14:15:51;11.22;74.88
65989;HTU21D;53592;51.402;6.054;2022-12-29T14:18:24;11.20;74.99
65989;HTU21D;53592;51.402;6.054;2022-12-29T14:23:43;11.18;74.71
65989;HTU21D;53592;51.402;6.054;2022-12-29T14:26:18;11.15;74.25
65989;HTU21D;53592;51.402;6.054;2022-12-29T14:31:48;11.09;74.47
65989;HTU21D;53592;51.402;6.054;2022-12-29T14:34:15;11.08;74.76
65989;HTU21D;53592;51.402;6.054;2022-12-29T14:36:58;11.11;74.62
65989;HTU21D;53592;51.402;6.054;2022-12-29T14:45:08;11.03;74.62
65989;HTU21D;53592;51.402;6.054;2022-12-29T14:47:52;11.03;74.32
65989;HTU21D;53592;51.402;6.054;2022-12-29T14:50:38;11.00;73.91
65989;HTU21D;53592;51.402;6.054;2022-12-29T14:53:06;10.99;74.57
65989;HTU21D;53592;51.402;6.054;2022-12-29T14:55:38;10.89;74.13
65989;HTU21D;53592;51.402;6.054;2022-12-29T14:58:11;10.90;74.63
65989;HTU21D;53592;51.402;6.054;2022-12-29T15:00:38;10.87;74.93
65989;HTU21D;53592;51.402;6.054;2022-12-29T15:03:19;10.84;75.30
65989;HTU21D;53592;51.402;6.054;2022-12-29T15:05:50;10.83;75.42
65989;HTU21D;53592;51.402;6.054;2022-12-29T15:08:21;10.81;75.57
65989;HTU21D;53592;51.402;6.054;2022-12-29T15:10:57;10.77;75.41
65989;HTU21D;53592;51.402;6.054;2022-12-29T15:13:37;10.74;76.15
65989;HTU21D;53592;51.402;6.054;2022-12-29T15:16:04;10.72;75.70
65989;HTU21D;53592;51.402;6.054;2022-12-29T15:18:32;10.72;75.64
65989;HTU21D;53592;51.402;6.054;2022-12-29T15:21:01;10.70;76.04
65989;HTU21D;53592;51.402;6.054;2022-12-29T15:23:30;10.69;75.95
65989;HTU21D;53592;51.402;6.054;2022-12-29T15:26:05;10.69;75.56
65989;HTU21D;53592;51.402;6.054;2022-12-29T15:28:43;10.69;75.67
65989;HTU21D;53592;51.402;6.054;2022-12-29T15:31:19;10.70;75.33
65989;HTU21D;53592;51.402;6.054;2022-12-29T15:33:52;10.71;75.32
65989;HTU21D;53592;51.402;6.054;2022-12-29T15:38:44;10.69;75.34
65989;HTU21D;53592;51.402;6.054;2022-12-29T15:44:10;10.72;75.69
65989;HTU21D;53592;51.402;6.054;2022-12-29T15:46:38;10.66;76.49
65989;HTU21D;53592;51.402;6.054;2022-12-29T15:49:07;10.62;76.61
65989;HTU21D;53592;51.402;6.054;2022-12-29T15:51:38;10.53;77.47
65989;HTU21D;53592;51.402;6.054;2022-12-29T15:54:06;10.44;77.98
65989;HTU21D;53592;51.402;6.054;2022-12-29T15:56:33;10.40;78.43
65989;HTU21D;53592;51.402;6.054;2022-12-29T15:59:00;10.31;79.19
65989;HTU21D;53592;51.402;6.054;2022-12-29T16:01:34;10.24;80.17
65989;HTU21D;53592;51.402;6.054;2022-12-29T16:04:04;10.18;80.27
65989;HTU21D;53592;51.402;6.054;2022-12-29T16:06:39;10.12;80.38
65989;HTU21D;53592;51.402;6.054;2022-12-29T16:09:53;10.07;80.15
65989;HTU21D;53592;51.402;6.054;2022-12-29T16:12:20;9.96;80.33
65989;HTU21D;53592;51.402;6.054;2022-12-29T16:14:52;9.92;80.46
65989;HTU21D;53592;51.402;6.054;2022-12-29T16:17:26;9.89;80.21
65989;HTU21D;53592;51.402;6.054;2022-12-29T16:19:57;9.80;80.20
65989;HTU21D;53592;51.402;6.054;2022-12-29T16:22:33;9.74;80.68
65989;HTU21D;53592;51.402;6.054;2022-12-29T16:27:43;9.61;81.14
65989;HTU21D;53592;51.402;6.054;2022-12-29T16:30:25;9.52;81.41
65989;HTU21D;53592;51.402;6.054;2022-12-29T16:32:54;9.39;82.26
65989;HTU21D;53592;51.402;6.054;2022-12-29T16:35:22;9.34;82.33
65989;HTU21D;53592;51.402;6.054;2022-12-29T16:38:13;9.29;82.23
65989;HTU21D;53592;51.402;6.054;2022-12-29T16:40:59;9.23;82.37
65989;HTU21D;53592;51.402;6.054;2022-12-29T16:43:32;9.21;82.18
65989;HTU21D;53592;51.402;6.054;2022-12-29T16:48:45;9.22;82.27
65989;HTU21D;53592;51.402;6.054;2022-12-29T16:51:19;9.11;82.87
65989;HTU21D;53592;51.402;6.054;2022-12-29T16:53:52;9.10;82.46
65989;HTU21D;53592;51.402;6.054;2022-12-29T16:56:24;9.07;82.30
65989;HTU21D;53592;51.402;6.054;2022-12-29T17:01:27;9.04;82.78
65989;HTU21D;53592;51.402;6.054;2022-12-29T17:04:06;9.01;82.56
65989;HTU21D;53592;51.402;6.054;2022-12-29T17:06:32;8.97;82.48
65989;HTU21D;53592;51.402;6.054;2022-12-29T17:08:58;8.96;82.23
65989;HTU21D;53592;51.402;6.054;2022-12-29T17:11:33;8.96;82.06
65989;HTU21D;53592;51.402;6.054;2022-12-29T17:14:47;8.89;82.05
65989;HTU21D;53592;51.402;6.054;2022-12-29T17:17:34;8.87;82.29
65989;HTU21D;53592;51.402;6.054;2022-12-29T17:20:23;8.83;82.11
65989;HTU21D;53592;51.402;6.054;2022-12-29T17:22:47;8.79;82.48
65989;HTU21D;53592;51.402;6.054;2022-12-29T17:25:16;8.82;82.38
65989;HTU21D;53592;51.402;6.054;2022-12-29T17:27:49;8.82;82.33
65989;HTU21D;53592;51.402;6.054;2022-12-29T17:30:20;8.80;82.10
65989;HTU21D;53592;51.402;6.054;2022-12-29T17:33:06;8.78;81.97
65989;HTU21D;53592;51.402;6.054;2022-12-29T17:35:37;8.75;81.95
65989;HTU21D;53592;51.402;6.054;2022-12-29T17:38:33;8.66;82.39
65989;HTU21D;53592;51.402;6.054;2022-12-29T17:40:57;8.65;82.41
65989;HTU21D;53592;51.402;6.054;2022-12-29T17:43:22;8.57;83.05
65989;HTU21D;53592;51.402;6.054;2022-12-29T17:45:53;8.57;82.97
65989;HTU21D;53592;51.402;6.054;2022-12-29T17:48:19;8.57;83.20
65989;HTU21D;53592;51.402;6.054;2022-12-29T17:50:47;8.50;83.81
65989;HTU21D;53592;51.402;6.054;2022-12-29T17:53:18;8.53;83.56
65989;HTU21D;53592;51.402;6.054;2022-12-29T17:55:44;8.53;83.33
65989;HTU21D;53592;51.402;6.054;2022-12-29T17:58:19;8.45;83.94
65989;HTU21D;53592;51.402;6.054;2022-12-29T18:00:47;8.43;84.08
65989;HTU21D;53592;51.402;6.054;2022-12-29T18:03:23;8.45;84.05
65989;HTU21D;53592;51.402;6.054;2022-12-29T18:05:49;8.38;84.29
65989;HTU21D;53592;51.402;6.054;2022-12-29T18:08:15;8.38;84.18
65989;HTU21D;53592;51.402;6.054;2022-12-29T18:10:41;8.39;84.21
65989;HTU21D;53592;51.402;6.054;2022-12-29T18:13:22;8.41;84.04
65989;HTU21D;53592;51.402;6.054;2022-12-29T18:15:48;8.37;84.18
65989;HTU21D;53592;51.402;6.054;2022-12-29T18:18:24;8.45;83.68
65989;HTU21D;53592;51.402;6.054;2022-12-29T18:20:53;8.33;84.24
65989;HTU21D;53592;51.402;6.054;2022-12-29T18:23:25;8.32;84.15